sensor_id;sensor_type;location;lat;lon;timestamp;temperature;humidity
20070;DHT22;10195;50.868;4.382;2023-10-13T00:01:57;19.00;99.90
20070;DHT22;10195;50.868;4.382;2023-10-13T00:04:25;19.00;99.90
20070;DHT22;10195;50.868;4.382;2023-10-13T00:06:55;19.00;99.90
20070;DHT22;10195;50.868;4.382;2023-10-13T00:09:25;19.10;99.90
20070;DHT22;10195;50.868;4.382;2023-10-13T00:11:57;19.00;99.90
20070;DHT22;10195;50.868;4.382;2023-10-13T00:14:23;19.00;99.90
20070;DHT22;10195;50.868;4.382;2023-10-13T00:16:57;19.10;99.90
20070;DHT22;10195;50.868;4.382;2023-10-13T00:19:34;19.10;99.90
20070;DHT22;10195;50.868;4.382;2023-10-13T00:22:10;19.10;99.90
20070;DHT22;10195;50.868;4.382;2023-10-13T00:24:37;19.10;99.90
20070;DHT22;10195;50.868;4.382;2023-10-13T00:27:18;19.20;99.90
20070;DHT22;10195;50.868;4.382;2023-10-13T00:30:00;19.30;99.90
20070;DHT22;10195;50.868;4.382;2023-10-13T00:32:46;19.20;99.90
20070;DHT22;10195;50.868;4.382;2023-10-13T00:35:16;19.30;99.90
20070;DHT22;10195;50.868;4.382;2023-10-13T00:37:54;19.30;99.90
20070;DHT22;10195;50.868;4.382;2023-10-13T00:40:23;19.20;99.90
20070;DHT22;10195;50.868;4.382;2023-10-13T00:42:55;19.20;99.90
20070;DHT22;10195;50.868;4.382;2023-10-13T00:45:31;19.20;99.90
20070;DHT22;10195;50.868;4.382;2023-10-13T00:47:59;19.30;99.90
20070;DHT22;10195;50.868;4.382;2023-10-13T00:50:26;19.30;99.90
20070;DHT22;10195;50.868;4.382;2023-10-13T00:52:53;19.20;99.90
20070;DHT22;10195;50.868;4.382;2023-10-13T00:55:21;19.20;99.90
20070;DHT22;10195;50.868;4.382;2023-10-13T00:57:52;19.20;99.90
20070;DHT22;10195;50.868;4.382;2023-10-13T01:00:20;19.20;99.90
20070;DHT22;10195;50.868;4.382;2023-10-13T01:02:50;19.10;99.90
20070;DHT22;10195;50.868;4.382;2023-10-13T01:05:25;19.10;99.90
20070;DHT22;10195;50.868;4.382;2023-10-13T01:07:51;19.10;99.90
20070;DHT22;10195;50.868;4.382;2023-10-13T01:10:20;19.20;99.90
20070;DHT22;10195;50.868;4.382;2023-10-13T01:12:51;19.30;99.90
20070;DHT22;10195;50.868;4.382;2023-10-13T01:15:18;19.30;99.90
20070;DHT22;10195;50.868;4.382;2023-10-13T01:17:47;19.40;99.90
20070;DHT22;10195;50.868;4.382;2023-10-13T01:20:16;19.30;99.90
20070;DHT22;10195;50.868;4.382;2023-10-13T01:22:52;19.40;99.90
20070;DHT22;10195;50.868;4.382;2023-10-13T01:25:25;19.40;99.90
20070;DHT22;10195;50.868;4.382;2023-10-13T01:27:54;19.50;99.90
20070;DHT22;10195;50.868;4.382;2023-10-13T01:30:20;19.40;99.90
20070;DHT22;10195;50.868;4.382;2023-10-13T01:32:50;19.40;99.90
20070;DHT22;10195;50.868;4.382;2023-10-13T01:35:17;19.40;99.90
20070;DHT22;10195;50.868;4.382;2023-10-13T01:38:00;19.30;99.90
20070;DHT22;10195;50.868;4.382;2023-10-13T01:40:26;19.30;99.90
20070;DHT22;10195;50.868;4.382;2023-10-13T01:42:54;19.30;99.90
20070;DHT22;10195;50.868;4.382;2023-10-13T01:45:21;19.20;99.90
20070;DHT22;10195;50.868;4.382;2023-10-13T01:47:47;19.20;99.90
20070;DHT22;10195;50.868;4.382;2023-10-13T01:50:16;19.20;99.90
20070;DHT22;10195;50.868;4.382;2023-10-13T01:52:47;19.20;99.90
20070;DHT22;10195;50.868;4.382;2023-10-13T01:55:13;19.10;99.90
20070;DHT22;10195;50.868;4.382;2023-10-13T01:57:39;19.10;99.90
20070;DHT22;10195;50.868;4.382;2023-10-13T02:00:09;19.10;99.90
20070;DHT22;10195;50.868;4.382;2023-10-13T02:02:45;19.10;99.90
20070;DHT22;10195;50.868;4.382;2023-10-13T02:05:11;19.20;99.90
20070;DHT22;10195;50.868;4.382;2023-10-13T02:07:37;19.20;99.90
20070;DHT22;10195;50.868;4.382;2023-10-13T02:10:11;19.10;99.90
20070;DHT22;10195;50.868;4.382;2023-10-13T02:12:38;19.00;99.90
20070;DHT22;10195;50.868;4.382;2023-10-13T02:15:13;19.00;99.90
20070;DHT22;10195;50.868;4.382;2023-10-13T02:17:52;19.00;99.90
20070;DHT22;10195;50.868;4.382;2023-10-13T02:20:20;19.00;99.90
20070;DHT22;10195;50.868;4.382;2023-10-13T02:22:49;19.10;99.90
20070;DHT22;10195;50.868;4.382;2023-10-13T02:25:19;19.10;99.90
20070;DHT22;10195;50.868;4.382;2023-10-13T02:28:05;19.00;99.90
20070;DHT22;10195;50.868;4.382;2023-10-13T02:30:43;19.00;99.90
20070;DHT22;10195;50.868;4.382;2023-10-13T02:33:14;19.00;99.90
20070;DHT22;10195;50.868;4.382;2023-10-13T02:35:40;19.00;99.90
20070;DHT22;10195;50.868;4.382;2023-10-13T02:38:16;19.00;99.90
20070;DHT22;10195;50.868;4.382;2023-10-13T02:40:51;19.10;99.90
20070;DHT22;10195;50.868;4.382;2023-10-13T02:43:20;19.10;99.90
20070;DHT22;10195;50.868;4.382;2023-10-13T02:45:52;19.10;99.90
20070;DHT22;10195;50.868;4.382;2023-10-13T02:48:25;19.00;99.90
20070;DHT22;10195;50.868;4.382;2023-10-13T02:50:59;19.10;99.90
20070;DHT22;10195;50.868;4.382;2023-10-13T02:53:28;19.00;99.90
20070;DHT22;10195;50.868;4.382;2023-10-13T02:55:55;19.10;99.90
20070;DHT22;10195;50.868;4.382;2023-10-13T02:58:24;19.00;99.90
20070;DHT22;10195;50.868;4.382;2023-10-13T03:01:06;19.00;99.90
20070;DHT22;10195;50.868;4.382;2023-10-13T03:03:54;19.00;99.90
20070;DHT22;10195;50.868;4.382;2023-10-13T03:06:23;19.00;99.90
20070;DHT22;10195;50.868;4.382;2023-10-13T03:08:51;19.10;99.90
20070;DHT22;10195;50.868;4.382;2023-10-13T03:11:17;19.10;99.90
20070;DHT22;10195;50.868;4.382;2023-10-13T03:13:47;19.10;99.90
20070;DHT22;10195;50.868;4.382;2023-10-13T03:16:16;19.00;99.90
20070;DHT22;10195;50.868;4.382;2023-10-13T03:18:43;19.00;99.90
20070;DHT22;10195;50.868;4.382;2023-10-13T03:21:29;19.10;99.90
20070;DHT22;10195;50.868;4.382;2023-10-13T03:23:57;19.10;99.90
20070;DHT22;10195;50.868;4.382;2023-10-13T03:26:29;19.10;99.90
20070;DHT22;10195;50.868;4.382;2023-10-13T03:29:00;19.20;99.90
20070;DHT22;10195;50.868;4.382;2023-10-13T03:31:29;19.00;99.90
20070;DHT22;10195;50.868;4.382;2023-10-13T03:33:54;19.10;99.90
20070;DHT22;10195;50.868;4.382;2023-10-13T03:36:25;19.10;99.90
20070;DHT22;10195;50.868;4.382;2023-10-13T03:39:10;19.10;99.90
20070;DHT22;10195;50.868;4.382;2023-10-13T03:41:37;19.10;99.90
20070;DHT22;10195;50.868;4.382;2023-10-13T03:44:04;19.10;99.90
20070;DHT22;10195;50.868;4.382;2023-10-13T03:46:38;19.20;99.90
20070;DHT22;10195;50.868;4.382;2023-10-13T03:49:07;19.20;99.90
20070;DHT22;10195;50.868;4.382;2023-10-13T03:51:39;19.10;99.90
20070;DHT22;10195;50.868;4.382;2023-10-13T03:54:04;19.10;99.90
20070;DHT22;10195;50.868;4.382;2023-10-13T03:56:33;19.10;99.90
20070;DHT22;10195;50.868;4.382;2023-10-13T03:59:06;19.10;99.90
20070;DHT22;10195;50.868;4.382;2023-10-13T04:01:35;19.10;99.90
20070;DHT22;10195;50.868;4.382;2023-10-13T04:04:12;19.10;99.90
20070;DHT22;10195;50.868;4.382;2023-10-13T04:06:40;19.00;99.90
20070;DHT22;10195;50.868;4.382;2023-10-13T04:09:21;19.00;99.90
20070;DHT22;10195;50.868;4.382;2023-10-13T04:14:34;19.00;99.90
20070;DHT22;10195;50.868;4.382;2023-10-13T04:17:18;19.00;99.90
20070;DHT22;10195;50.868;4.382;2023-10-13T04:19:55;19.00;99.90
20070;DHT22;10195;50.868;4.382;2023-10-13T04:22:40;18.90;99.90
20070;DHT22;10195;50.868;4.382;2023-10-13T04:25:19;18.90;99.90
20070;DHT22;10195;50.868;4.382;2023-10-13T04:28:04;18.90;99.90
20070;DHT22;10195;50.868;4.382;2023-10-13T04:33:13;18.90;99.90
20070;DHT22;10195;50.868;4.382;2023-10-13T04:36:06;18.90;99.90
20070;DHT22;10195;50.868;4.382;2023-10-13T04:39:07;18.90;99.90
20070;DHT22;10195;50.868;4.382;2023-10-13T04:41:34;18.80;99.90
20070;DHT22;10195;50.868;4.382;2023-10-13T04:44:10;18.80;99.90
20070;DHT22;10195;50.868;4.382;2023-10-13T04:46:54;18.80;99.90
20070;DHT22;10195;50.868;4.382;2023-10-13T04:49:39;18.80;99.90
20070;DHT22;10195;50.868;4.382;2023-10-13T04:52:08;18.80;99.90
20070;DHT22;10195;50.868;4.382;2023-10-13T04:54:43;18.80;99.90
20070;DHT22;10195;50.868;4.382;2023-10-13T04:57:35;18.80;99.90
20070;DHT22;10195;50.868;4.382;2023-10-13T05:00:13;18.80;99.90
20070;DHT22;10195;50.868;4.382;2023-10-13T05:02:46;18.80;99.90
20070;DHT22;10195;50.868;4.382;2023-10-13T05:05:50;18.90;99.90
20070;DHT22;10195;50.868;4.382;2023-10-13T05:08:35;18.70;99.90
20070;DHT22;10195;50.868;4.382;2023-10-13T05:11:19;18.80;99.90
20070;DHT22;10195;50.868;4.382;2023-10-13T05:14:03;18.80;99.90
20070;DHT22;10195;50.868;4.382;2023-10-13T05:16:47;18.80;99.90
20070;DHT22;10195;50.868;4.382;2023-10-13T05:19:42;18.90;99.90
20070;DHT22;10195;50.868;4.382;2023-10-13T05:22:26;18.80;99.90
20070;DHT22;10195;50.868;4.382;2023-10-13T05:25:10;18.90;99.90
20070;DHT22;10195;50.868;4.382;2023-10-13T05:27:54;18.90;99.90
20070;DHT22;10195;50.868;4.382;2023-10-13T05:30:39;18.90;99.90
20070;DHT22;10195;50.868;4.382;2023-10-13T05:33:23;18.90;99.90
20070;DHT22;10195;50.868;4.382;2023-10-13T05:36:11;18.90;99.90
20070;DHT22;10195;50.868;4.382;2023-10-13T05:38:55;18.90;99.90
20070;DHT22;10195;50.868;4.382;2023-10-13T05:41:39;18.90;99.90
20070;DHT22;10195;50.868;4.382;2023-10-13T05:44:23;18.90;99.90
20070;DHT22;10195;50.868;4.382;2023-10-13T05:47:21;18.90;99.90
20070;DHT22;10195;50.868;4.382;2023-10-13T05:50:06;19.00;99.90
20070;DHT22;10195;50.868;4.382;2023-10-13T05:52:47;18.90;99.90
20070;DHT22;10195;50.868;4.382;2023-10-13T05:55:19;18.90;99.90
20070;DHT22;10195;50.868;4.382;2023-10-13T05:58:14;18.80;99.90
20070;DHT22;10195;50.868;4.382;2023-10-13T06:00:59;18.80;99.90
20070;DHT22;10195;50.868;4.382;2023-10-13T06:03:43;18.70;99.90
20070;DHT22;10195;50.868;4.382;2023-10-13T06:06:27;18.70;99.90
20070;DHT22;10195;50.868;4.382;2023-10-13T06:09:11;18.80;99.90
20070;DHT22;10195;50.868;4.382;2023-10-13T06:11:55;18.80;99.90
20070;DHT22;10195;50.868;4.382;2023-10-13T06:14:39;18.70;99.90
20070;DHT22;10195;50.868;4.382;2023-10-13T06:17:24;18.70;99.90
20070;DHT22;10195;50.868;4.382;2023-10-13T06:20:09;18.70;99.90
20070;DHT22;10195;50.868;4.382;2023-10-13T06:22:53;18.80;99.90
20070;DHT22;10195;50.868;4.382;2023-10-13T06:25:38;18.90;99.90
20070;DHT22;10195;50.868;4.382;2023-10-13T06:28:22;18.80;99.90
20070;DHT22;10195;50.868;4.382;2023-10-13T06:31:06;18.90;99.90
20070;DHT22;10195;50.868;4.382;2023-10-13T06:33:35;18.80;99.90
20070;DHT22;10195;50.868;4.382;2023-10-13T06:36:05;18.90;99.90
20070;DHT22;10195;50.868;4.382;2023-10-13T06:38:35;18.90;99.90
20070;DHT22;10195;50.868;4.382;2023-10-13T06:41:05;18.90;99.90
20070;DHT22;10195;50.868;4.382;2023-10-13T06:43:36;19.00;99.90
20070;DHT22;10195;50.868;4.382;2023-10-13T06:46:11;19.00;99.90
20070;DHT22;10195;50.868;4.382;2023-10-13T06:48:51;19.20;99.90
20070;DHT22;10195;50.868;4.382;2023-10-13T06:51:18;19.20;99.90
20070;DHT22;10195;50.868;4.382;2023-10-13T06:53:47;19.20;99.90
20070;DHT22;10195;50.868;4.382;2023-10-13T06:56:17;19.30;99.90
20070;DHT22;10195;50.868;4.382;2023-10-13T06:59:03;19.40;99.90
20070;DHT22;10195;50.868;4.382;2023-10-13T07:01:29;19.40;99.90
20070;DHT22;10195;50.868;4.382;2023-10-13T07:03:55;19.50;99.90
20070;DHT22;10195;50.868;4.382;2023-10-13T07:06:27;19.50;99.90
20070;DHT22;10195;50.868;4.382;2023-10-13T07:08:52;19.60;99.90
20070;DHT22;10195;50.868;4.382;2023-10-13T07:11:25;19.60;99.90
20070;DHT22;10195;50.868;4.382;2023-10-13T07:14:04;19.60;99.90
20070;DHT22;10195;50.868;4.382;2023-10-13T07:16:59;19.70;99.90
20070;DHT22;10195;50.868;4.382;2023-10-13T07:19:28;19.70;99.90
20070;DHT22;10195;50.868;4.382;2023-10-13T07:21:58;19.70;99.90
20070;DHT22;10195;50.868;4.382;2023-10-13T07:24:27;19.80;99.90
20070;DHT22;10195;50.868;4.382;2023-10-13T07:27:00;20.00;99.90
20070;DHT22;10195;50.868;4.382;2023-10-13T07:29:31;20.30;99.90
20070;DHT22;10195;50.868;4.382;2023-10-13T07:32:03;20.40;99.90
20070;DHT22;10195;50.868;4.382;2023-10-13T07:34:32;20.50;99.90
20070;DHT22;10195;50.868;4.382;2023-10-13T07:36:58;20.40;99.90
20070;DHT22;10195;50.868;4.382;2023-10-13T07:39:30;20.30;99.90
20070;DHT22;10195;50.868;4.382;2023-10-13T07:42:05;20.30;99.90
20070;DHT22;10195;50.868;4.382;2023-10-13T07:44:40;20.30;99.90
20070;DHT22;10195;50.868;4.382;2023-10-13T07:47:11;20.30;99.90
20070;DHT22;10195;50.868;4.382;2023-10-13T07:49:38;20.40;99.90
20070;DHT22;10195;50.868;4.382;2023-10-13T07:52:12;20.50;99.90
20070;DHT22;10195;50.868;4.382;2023-10-13T07:54:49;20.60;99.90
20070;DHT22;10195;50.868;4.382;2023-10-13T07:57:15;20.60;99.90
20070;DHT22;10195;50.868;4.382;2023-10-13T07:59:41;20.60;99.90
20070;DHT22;10195;50.868;4.382;2023-10-13T08:02:14;20.70;99.90
20070;DHT22;10195;50.868;4.382;2023-10-13T08:04:40;20.80;99.90
20070;DHT22;10195;50.868;4.382;2023-10-13T08:07:06;20.80;99.90
20070;DHT22;10195;50.868;4.382;2023-10-13T08:09:40;21.10;99.90
20070;DHT22;10195;50.868;4.382;2023-10-13T08:12:16;21.20;99.90
20070;DHT22;10195;50.868;4.382;2023-10-13T08:14:49;21.30;99.90
20070;DHT22;10195;50.868;4.382;2023-10-13T08:17:34;21.40;99.90
20070;DHT22;10195;50.868;4.382;2023-10-13T08:20:00;21.30;99.90
20070;DHT22;10195;50.868;4.382;2023-10-13T08:22:36;21.10;99.90
20070;DHT22;10195;50.868;4.382;2023-10-13T08:25:04;21.10;99.90
20070;DHT22;10195;50.868;4.382;2023-10-13T08:27:48;21.20;99.90
20070;DHT22;10195;50.868;4.382;2023-10-13T08:30:15;21.30;99.90
20070;DHT22;10195;50.868;4.382;2023-10-13T08:32:55;21.20;99.90
20070;DHT22;10195;50.868;4.382;2023-10-13T08:35:23;21.20;99.90
20070;DHT22;10195;50.868;4.382;2023-10-13T08:37:59;21.20;99.90
20070;DHT22;10195;50.868;4.382;2023-10-13T08:40:29;21.40;99.90
20070;DHT22;10195;50.868;4.382;2023-10-13T08:43:13;21.40;99.90
20070;DHT22;10195;50.868;4.382;2023-10-13T08:45:43;21.80;99.90
20070;DHT22;10195;50.868;4.382;2023-10-13T08:48:10;22.10;99.90
20070;DHT22;10195;50.868;4.382;2023-10-13T08:50:47;21.90;99.90
20070;DHT22;10195;50.868;4.382;2023-10-13T08:53:27;21.90;99.90
20070;DHT22;10195;50.868;4.382;2023-10-13T08:56:00;21.90;99.90
20070;DHT22;10195;50.868;4.382;2023-10-13T08:58:33;21.70;99.90
20070;DHT22;10195;50.868;4.382;2023-10-13T09:01:33;21.70;99.90
20070;DHT22;10195;50.868;4.382;2023-10-13T09:04:14;21.80;99.90
20070;DHT22;10195;50.868;4.382;2023-10-13T09:09:32;21.70;99.90
20070;DHT22;10195;50.868;4.382;2023-10-13T09:14:56;21.80;99.90
20070;DHT22;10195;50.868;4.382;2023-10-13T09:17:30;21.60;99.90
20070;DHT22;10195;50.868;4.382;2023-10-13T09:20:01;21.60;99.90
20070;DHT22;10195;50.868;4.382;2023-10-13T09:22:54;21.50;99.90
20070;DHT22;10195;50.868;4.382;2023-10-13T09:25:37;21.70;99.90
20070;DHT22;10195;50.868;4.382;2023-10-13T09:28:13;22.20;99.90
20070;DHT22;10195;50.868;4.382;2023-10-13T09:30:56;22.40;99.90
20070;DHT22;10195;50.868;4.382;2023-10-13T09:33:31;22.20;99.90
20070;DHT22;10195;50.868;4.382;2023-10-13T09:36:11;22.10;99.90
20070;DHT22;10195;50.868;4.382;2023-10-13T09:38:38;21.90;99.90
20070;DHT22;10195;50.868;4.382;2023-10-13T09:41:13;21.80;99.90
20070;DHT22;10195;50.868;4.382;2023-10-13T09:43:46;21.80;99.90
20070;DHT22;10195;50.868;4.382;2023-10-13T09:46:18;21.90;99.90
20070;DHT22;10195;50.868;4.382;2023-10-13T09:48:46;22.10;99.90
20070;DHT22;10195;50.868;4.382;2023-10-13T09:51:14;22.10;99.90
20070;DHT22;10195;50.868;4.382;2023-10-13T09:53:42;22.20;99.90
20070;DHT22;10195;50.868;4.382;2023-10-13T09:56:18;22.50;99.90
20070;DHT22;10195;50.868;4.382;2023-10-13T09:58:55;22.50;99.90
20070;DHT22;10195;50.868;4.382;2023-10-13T10:01:27;22.70;99.90
20070;DHT22;10195;50.868;4.382;2023-10-13T10:04:10;22.90;99.90
20070;DHT22;10195;50.868;4.382;2023-10-13T10:06:54;22.80;99.90
20070;DHT22;10195;50.868;4.382;2023-10-13T10:09:27;22.90;99.90
20070;DHT22;10195;50.868;4.382;2023-10-13T10:15:16;23.10;99.90
20070;DHT22;10195;50.868;4.382;2023-10-13T10:17:53;23.00;99.90
20070;DHT22;10195;50.868;4.382;2023-10-13T10:20:32;22.80;99.90
20070;DHT22;10195;50.868;4.382;2023-10-13T10:23:08;22.80;99.90
20070;DHT22;10195;50.868;4.382;2023-10-13T10:25:48;22.90;99.90
20070;DHT22;10195;50.868;4.382;2023-10-13T10:28:17;22.90;99.90
20070;DHT22;10195;50.868;4.382;2023-10-13T10:30:45;23.00;99.90
20070;DHT22;10195;50.868;4.382;2023-10-13T10:33:11;23.10;99.90
20070;DHT22;10195;50.868;4.382;2023-10-13T10:35:59;23.40;99.90
20070;DHT22;10195;50.868;4.382;2023-10-13T10:38:25;23.20;99.90
20070;DHT22;10195;50.868;4.382;2023-10-13T10:41:04;23.20;99.90
20070;DHT22;10195;50.868;4.382;2023-10-13T10:43:36;23.30;99.90
20070;DHT22;10195;50.868;4.382;2023-10-13T10:48:38;23.50;99.90
20070;DHT22;10195;50.868;4.382;2023-10-13T10:51:12;23.60;99.90
20070;DHT22;10195;50.868;4.382;2023-10-13T10:53:57;23.70;99.90
20070;DHT22;10195;50.868;4.382;2023-10-13T10:56:26;24.00;99.90
20070;DHT22;10195;50.868;4.382;2023-10-13T10:59:05;24.20;99.90
20070;DHT22;10195;50.868;4.382;2023-10-13T11:01:44;24.40;99.90
20070;DHT22;10195;50.868;4.382;2023-10-13T11:04:14;24.60;99.90
20070;DHT22;10195;50.868;4.382;2023-10-13T11:06:47;24.60;99.90
20070;DHT22;10195;50.868;4.382;2023-10-13T11:09:13;24.50;99.90
20070;DHT22;10195;50.868;4.382;2023-10-13T11:11:51;24.30;99.90
20070;DHT22;10195;50.868;4.382;2023-10-13T11:14:23;24.30;99.90
20070;DHT22;10195;50.868;4.382;2023-10-13T11:16:49;24.00;99.90
20070;DHT22;10195;50.868;4.382;2023-10-13T11:19:35;24.20;99.90
20070;DHT22;10195;50.868;4.382;2023-10-13T11:22:14;24.40;99.90
20070;DHT22;10195;50.868;4.382;2023-10-13T11:25:00;24.60;99.90
20070;DHT22;10195;50.868;4.382;2023-10-13T11:27:32;24.70;99.90
20070;DHT22;10195;50.868;4.382;2023-10-13T11:30:21;24.50;99.90
20070;DHT22;10195;50.868;4.382;2023-10-13T11:33:03;24.50;99.90
20070;DHT22;10195;50.868;4.382;2023-10-13T11:35:32;24.40;99.90
20070;DHT22;10195;50.868;4.382;2023-10-13T11:38:16;24.30;99.90
20070;DHT22;10195;50.868;4.382;2023-10-13T11:43:51;24.40;99.90
20070;DHT22;10195;50.868;4.382;2023-10-13T11:46:24;24.50;99.90
20070;DHT22;10195;50.868;4.382;2023-10-13T11:49:10;24.70;99.90
20070;DHT22;10195;50.868;4.382;2023-10-13T11:51:48;24.60;99.90
20070;DHT22;10195;50.868;4.382;2023-10-13T11:54:18;24.60;99.90
20070;DHT22;10195;50.868;4.382;2023-10-13T11:56:45;24.50;99.90
20070;DHT22;10195;50.868;4.382;2023-10-13T11:59:11;24.60;99.90
20070;DHT22;10195;50.868;4.382;2023-10-13T12:01:47;24.50;99.90
20070;DHT22;10195;50.868;4.382;2023-10-13T12:04:31;24.60;99.90
20070;DHT22;10195;50.868;4.382;2023-10-13T12:07:07;24.60;99.90
20070;DHT22;10195;50.868;4.382;2023-10-13T12:09:47;24.60;99.90
20070;DHT22;10195;50.868;4.382;2023-10-13T12:12:23;24.70;99.90
20070;DHT22;10195;50.868;4.382;2023-10-13T12:14:49;24.50;99.90
20070;DHT22;10195;50.868;4.382;2023-10-13T12:17:30;24.40;99.90
20070;DHT22;10195;50.868;4.382;2023-10-13T12:20:08;24.10;99.90
20070;DHT22;10195;50.868;4.382;2023-10-13T12:22:43;24.00;99.90
20070;DHT22;10195;50.868;4.382;2023-10-13T12:25:17;23.90;99.90
20070;DHT22;10195;50.868;4.382;2023-10-13T12:28:05;23.70;99.90
20070;DHT22;10195;50.868;4.382;2023-10-13T12:31:04;23.60;99.90
20070;DHT22;10195;50.868;4.382;2023-10-13T12:33:33;23.50;99.90
20070;DHT22;10195;50.868;4.382;2023-10-13T12:36:08;23.40;99.90
20070;DHT22;10195;50.868;4.382;2023-10-13T12:38:37;23.40;99.90
20070;DHT22;10195;50.868;4.382;2023-10-13T12:41:15;23.30;99.90
20070;DHT22;10195;50.868;4.382;2023-10-13T12:44:00;23.20;99.90
20070;DHT22;10195;50.868;4.382;2023-10-13T12:46:44;23.30;99.90
20070;DHT22;10195;50.868;4.382;2023-10-13T12:49:28;23.30;99.90
20070;DHT22;10195;50.868;4.382;2023-10-13T12:52:06;23.20;99.90
20070;DHT22;10195;50.868;4.382;2023-10-13T12:54:50;23.30;99.90
20070;DHT22;10195;50.868;4.382;2023-10-13T12:57:26;23.30;99.90
20070;DHT22;10195;50.868;4.382;2023-10-13T12:59:52;23.30;99.90
20070;DHT22;10195;50.868;4.382;2023-10-13T13:02:26;23.40;99.90
20070;DHT22;10195;50.868;4.382;2023-10-13T13:04:56;23.60;99.90
20070;DHT22;10195;50.868;4.382;2023-10-13T13:07:39;23.80;99.90
20070;DHT22;10195;50.868;4.382;2023-10-13T13:10:14;24.00;99.90
20070;DHT22;10195;50.868;4.382;2023-10-13T13:12:43;23.90;99.90
20070;DHT22;10195;50.868;4.382;2023-10-13T13:15:09;23.80;99.90
20070;DHT22;10195;50.868;4.382;2023-10-13T13:17:35;23.80;99.90
20070;DHT22;10195;50.868;4.382;2023-10-13T13:20:02;23.80;99.90
20070;DHT22;10195;50.868;4.382;2023-10-13T13:22:39;23.70;99.90
20070;DHT22;10195;50.868;4.382;2023-10-13T13:25:05;23.60;99.90
20070;DHT22;10195;50.868;4.382;2023-10-13T13:27:34;23.70;99.90
20070;DHT22;10195;50.868;4.382;2023-10-13T13:30:00;23.80;99.90
20070;DHT22;10195;50.868;4.382;2023-10-13T13:32:26;23.80;99.90
20070;DHT22;10195;50.868;4.382;2023-10-13T13:34:54;23.70;99.90
20070;DHT22;10195;50.868;4.382;2023-10-13T13:37:48;23.50;99.90
20070;DHT22;10195;50.868;4.382;2023-10-13T13:40:14;23.40;99.90
20070;DHT22;10195;50.868;4.382;2023-10-13T13:42:48;23.60;99.90
20070;DHT22;10195;50.868;4.382;2023-10-13T13:45:18;23.60;99.90
20070;DHT22;10195;50.868;4.382;2023-10-13T13:47:51;23.70;99.90
20070;DHT22;10195;50.868;4.382;2023-10-13T13:50:20;23.70;99.90
20070;DHT22;10195;50.868;4.382;2023-10-13T13:52:51;23.70;99.90
20070;DHT22;10195;50.868;4.382;2023-10-13T13:55:19;23.70;99.90
20070;DHT22;10195;50.868;4.382;2023-10-13T13:57:44;23.70;99.90
20070;DHT22;10195;50.868;4.382;2023-10-13T14:00:12;23.60;99.90
20070;DHT22;10195;50.868;4.382;2023-10-13T14:02:56;23.60;99.90
20070;DHT22;10195;50.868;4.382;2023-10-13T14:05:23;23.60;99.90
20070;DHT22;10195;50.868;4.382;2023-10-13T14:07:48;23.70;99.90
20070;DHT22;10195;50.868;4.382;2023-10-13T14:10:16;23.60;99.90
20070;DHT22;10195;50.868;4.382;2023-10-13T14:12:59;23.50;99.90
20070;DHT22;10195;50.868;4.382;2023-10-13T14:15:33;23.50;99.90
20070;DHT22;10195;50.868;4.382;2023-10-13T14:18:09;23.60;99.90
20070;DHT22;10195;50.868;4.382;2023-10-13T14:20:43;23.70;99.90
20070;DHT22;10195;50.868;4.382;2023-10-13T14:23:10;23.70;99.90
20070;DHT22;10195;50.868;4.382;2023-10-13T14:25:39;23.80;99.90
20070;DHT22;10195;50.868;4.382;2023-10-13T14:28:10;23.80;99.90
20070;DHT22;10195;50.868;4.382;2023-10-13T14:30:37;23.80;99.90
20070;DHT22;10195;50.868;4.382;2023-10-13T14:33:03;23.70;99.90
20070;DHT22;10195;50.868;4.382;2023-10-13T14:35:28;23.60;99.90
20070;DHT22;10195;50.868;4.382;2023-10-13T14:37:54;23.50;99.90
20070;DHT22;10195;50.868;4.382;2023-10-13T14:40:20;23.40;99.90
20070;DHT22;10195;50.868;4.382;2023-10-13T14:42:49;23.40;99.90
20070;DHT22;10195;50.868;4.382;2023-10-13T14:45:15;23.30;99.90
20070;DHT22;10195;50.868;4.382;2023-10-13T14:47:44;23.20;99.90
20070;DHT22;10195;50.868;4.382;2023-10-13T14:50:11;23.20;99.90
20070;DHT22;10195;50.868;4.382;2023-10-13T14:52:44;23.20;99.90
20070;DHT22;10195;50.868;4.382;2023-10-13T14:55:10;23.10;99.90
20070;DHT22;10195;50.868;4.382;2023-10-13T14:57:45;23.10;99.90
20070;DHT22;10195;50.868;4.382;2023-10-13T15:00:12;23.00;99.90
20070;DHT22;10195;50.868;4.382;2023-10-13T15:02:40;23.00;99.90
20070;DHT22;10195;50.868;4.382;2023-10-13T15:05:10;23.00;99.90
20070;DHT22;10195;50.868;4.382;2023-10-13T15:07:43;22.80;99.90
20070;DHT22;10195;50.868;4.382;2023-10-13T15:10:12;22.60;99.90
20070;DHT22;10195;50.868;4.382;2023-10-13T15:12:41;22.50;99.90
20070;DHT22;10195;50.868;4.382;2023-10-13T15:15:07;22.60;99.90
20070;DHT22;10195;50.868;4.382;2023-10-13T15:17:42;22.60;99.90
20070;DHT22;10195;50.868;4.382;2023-10-13T15:20:08;22.50;99.90
20070;DHT22;10195;50.868;4.382;2023-10-13T15:22:36;22.50;99.90
20070;DHT22;10195;50.868;4.382;2023-10-13T15:25:04;22.40;99.90
20070;DHT22;10195;50.868;4.382;2023-10-13T15:28:00;22.40;99.90
20070;DHT22;10195;50.868;4.382;2023-10-13T15:30:34;22.30;99.90
20070;DHT22;10195;50.868;4.382;2023-10-13T15:33:21;22.30;99.90
20070;DHT22;10195;50.868;4.382;2023-10-13T15:35:46;22.10;99.90
20070;DHT22;10195;50.868;4.382;2023-10-13T15:38:12;22.10;99.90
20070;DHT22;10195;50.868;4.382;2023-10-13T15:40:44;22.10;99.90
20070;DHT22;10195;50.868;4.382;2023-10-13T15:43:11;22.10;99.90
20070;DHT22;10195;50.868;4.382;2023-10-13T15:45:36;22.10;99.90
20070;DHT22;10195;50.868;4.382;2023-10-13T15:48:05;22.00;99.90
20070;DHT22;10195;50.868;4.382;2023-10-13T15:50:36;22.00;99.90
20070;DHT22;10195;50.868;4.382;2023-10-13T15:53:05;21.90;99.90
20070;DHT22;10195;50.868;4.382;2023-10-13T15:55:35;21.90;99.90
20070;DHT22;10195;50.868;4.382;2023-10-13T15:58:04;21.90;99.90
20070;DHT22;10195;50.868;4.382;2023-10-13T16:00:35;21.90;99.90
20070;DHT22;10195;50.868;4.382;2023-10-13T16:03:01;21.90;99.90
20070;DHT22;10195;50.868;4.382;2023-10-13T16:05:31;21.90;99.90
20070;DHT22;10195;50.868;4.382;2023-10-13T16:08:01;21.90;99.90
20070;DHT22;10195;50.868;4.382;2023-10-13T16:10:29;22.10;99.90
20070;DHT22;10195;50.868;4.382;2023-10-13T16:12:55;22.00;99.90
20070;DHT22;10195;50.868;4.382;2023-10-13T16:15:23;22.00;99.90
20070;DHT22;10195;50.868;4.382;2023-10-13T16:17:49;22.00;99.90
20070;DHT22;10195;50.868;4.382;2023-10-13T16:20:19;21.90;99.90
20070;DHT22;10195;50.868;4.382;2023-10-13T16:22:47;21.80;99.90
20070;DHT22;10195;50.868;4.382;2023-10-13T16:25:15;21.70;99.90
20070;DHT22;10195;50.868;4.382;2023-10-13T16:27:42;21.60;99.90
20070;DHT22;10195;50.868;4.382;2023-10-13T16:30:09;21.50;99.90
20070;DHT22;10195;50.868;4.382;2023-10-13T16:32:36;21.50;99.90